sensor_id;sensor_type;location;lat;lon;timestamp;P1;durP1;ratioP1;P2;durP2;ratioP2
27161;SDS011;54464;50.558;9.704;2023-07-20T00:01:52;5.90;;;3.73;;
27161;SDS011;54464;50.558;9.704;2023-07-20T00:05:12;4.83;;;3.80;;
27161;SDS011;54464;50.558;9.704;2023-07-20T00:08:30;5.00;;;4.50;;
27161;SDS011;54464;50.558;9.704;2023-07-20T00:11:47;6.90;;;4.60;;
27161;SDS011;54464;50.558;9.704;2023-07-20T00:14:38;4.87;;;4.13;;
27161;SDS011;54464;50.558;9.704;2023-07-20T00:17:18;5.27;;;4.33;;
27161;SDS011;54464;50.558;9.704;2023-07-20T00:20:16;6.30;;;4.17;;
27161;SDS011;54464;50.558;9.704;2023-07-20T00:22:50;4.87;;;4.00;;
27161;SDS011;54464;50.558;9.704;2023-07-20T00:25:34;5.33;;;4.13;;
27161;SDS011;54464;50.558;9.704;2023-07-20T00:34:15;3.93;;;3.53;;
27161;SDS011;54464;50.558;9.704;2023-07-20T00:36:56;4.03;;;3.30;;
27161;SDS011;54464;50.558;9.704;2023-07-20T00:39:51;6.87;;;3.87;;
27161;SDS011;54464;50.558;9.704;2023-07-20T00:42:57;5.60;;;3.80;;
27161;SDS011;54464;50.558;9.704;2023-07-20T00:45:43;4.40;;;4.00;;
27161;SDS011;54464;50.558;9.704;2023-07-20T00:48:19;4.93;;;4.40;;
27161;SDS011;54464;50.558;9.704;2023-07-20T00:54:15;5.20;;;4.07;;
27161;SDS011;54464;50.558;9.704;2023-07-20T00:57:01;5.50;;;4.40;;
27161;SDS011;54464;50.558;9.704;2023-07-20T00:59:35;5.60;;;4.10;;
27161;SDS011;54464;50.558;9.704;2023-07-20T01:02:44;5.53;;;4.43;;
27161;SDS011;54464;50.558;9.704;2023-07-20T01:05:21;5.30;;;4.70;;
27161;SDS011;54464;50.558;9.704;2023-07-20T01:08:56;5.17;;;4.67;;
27161;SDS011;54464;50.558;9.704;2023-07-20T01:14:16;6.27;;;4.90;;
27161;SDS011;54464;50.558;9.704;2023-07-20T01:17:01;5.57;;;4.93;;
27161;SDS011;54464;50.558;9.704;2023-07-20T01:19:41;5.53;;;5.03;;
27161;SDS011;54464;50.558;9.704;2023-07-20T01:31:28;7.53;;;4.80;;
27161;SDS011;54464;50.558;9.704;2023-07-20T01:34:05;7.97;;;6.10;;
27161;SDS011;54464;50.558;9.704;2023-07-20T01:36:54;7.30;;;5.60;;
27161;SDS011;54464;50.558;9.704;2023-07-20T01:39:35;5.77;;;5.27;;
27161;SDS011;54464;50.558;9.704;2023-07-20T01:42:11;7.47;;;5.27;;
27161;SDS011;54464;50.558;9.704;2023-07-20T01:45:15;6.77;;;5.60;;
27161;SDS011;54464;50.558;9.704;2023-07-20T01:48:09;5.33;;;4.87;;
27161;SDS011;54464;50.558;9.704;2023-07-20T01:50:37;5.80;;;5.23;;
27161;SDS011;54464;50.558;9.704;2023-07-20T01:55:49;6.73;;;5.70;;
27161;SDS011;54464;50.558;9.704;2023-07-20T01:58:14;6.33;;;5.73;;
27161;SDS011;54464;50.558;9.704;2023-07-20T02:00:46;7.17;;;5.37;;
27161;SDS011;54464;50.558;9.704;2023-07-20T02:03:14;5.47;;;4.97;;
27161;SDS011;54464;50.558;9.704;2023-07-20T02:05:54;5.97;;;5.27;;
27161;SDS011;54464;50.558;9.704;2023-07-20T02:08:49;5.17;;;4.77;;
27161;SDS011;54464;50.558;9.704;2023-07-20T02:11:17;5.70;;;4.87;;
27161;SDS011;54464;50.558;9.704;2023-07-20T02:13:46;5.83;;;5.20;;
27161;SDS011;54464;50.558;9.704;2023-07-20T02:16:14;6.10;;;4.93;;
27161;SDS011;54464;50.558;9.704;2023-07-20T02:18:57;7.97;;;4.50;;
27161;SDS011;54464;50.558;9.704;2023-07-20T02:21:46;5.83;;;4.93;;
27161;SDS011;54464;50.558;9.704;2023-07-20T02:24:39;7.40;;;5.97;;
27161;SDS011;54464;50.558;9.704;2023-07-20T02:27:07;6.43;;;5.47;;
27161;SDS011;54464;50.558;9.704;2023-07-20T02:29:42;6.43;;;5.30;;
27161;SDS011;54464;50.558;9.704;2023-07-20T02:32:13;6.17;;;5.50;;
27161;SDS011;54464;50.558;9.704;2023-07-20T02:34:41;9.63;;;6.57;;
27161;SDS011;54464;50.558;9.704;2023-07-20T02:37:10;6.70;;;6.00;;
27161;SDS011;54464;50.558;9.704;2023-07-20T02:40:08;5.73;;;5.23;;
27161;SDS011;54464;50.558;9.704;2023-07-20T02:42:34;6.20;;;5.40;;
27161;SDS011;54464;50.558;9.704;2023-07-20T02:45:05;8.07;;;4.83;;
27161;SDS011;54464;50.558;9.704;2023-07-20T02:47:40;6.30;;;5.10;;
27161;SDS011;54464;50.558;9.704;2023-07-20T02:50:21;6.73;;;5.30;;
27161;SDS011;54464;50.558;9.704;2023-07-20T02:52:58;6.50;;;4.90;;
27161;SDS011;54464;50.558;9.704;2023-07-20T02:55:29;6.83;;;3.90;;
27161;SDS011;54464;50.558;9.704;2023-07-20T02:58:03;4.30;;;3.80;;
27161;SDS011;54464;50.558;9.704;2023-07-20T03:00:34;4.20;;;3.80;;
27161;SDS011;54464;50.558;9.704;2023-07-20T03:03:03;4.40;;;4.00;;
27161;SDS011;54464;50.558;9.704;2023-07-20T03:05:34;6.37;;;4.50;;
27161;SDS011;54464;50.558;9.704;2023-07-20T03:08:10;5.50;;;4.17;;
27161;SDS011;54464;50.558;9.704;2023-07-20T03:10:39;5.67;;;4.43;;
27161;SDS011;54464;50.558;9.704;2023-07-20T03:13:26;6.57;;;4.20;;
27161;SDS011;54464;50.558;9.704;2023-07-20T03:18:28;5.27;;;4.50;;
27161;SDS011;54464;50.558;9.704;2023-07-20T03:21:08;6.63;;;4.67;;
27161;SDS011;54464;50.558;9.704;2023-07-20T03:23:36;5.23;;;4.73;;
27161;SDS011;54464;50.558;9.704;2023-07-20T03:26:06;5.33;;;4.63;;
27161;SDS011;54464;50.558;9.704;2023-07-20T03:28:59;5.27;;;4.77;;
27161;SDS011;54464;50.558;9.704;2023-07-20T03:31:24;6.47;;;4.73;;
27161;SDS011;54464;50.558;9.704;2023-07-20T03:33:56;5.27;;;4.77;;
27161;SDS011;54464;50.558;9.704;2023-07-20T03:36:35;5.40;;;4.67;;
27161;SDS011;54464;50.558;9.704;2023-07-20T03:39:09;6.43;;;4.80;;
27161;SDS011;54464;50.558;9.704;2023-07-20T03:41:50;6.53;;;4.87;;
27161;SDS011;54464;50.558;9.704;2023-07-20T03:44:36;4.93;;;4.43;;
27161;SDS011;54464;50.558;9.704;2023-07-20T03:47:04;5.47;;;4.47;;
27161;SDS011;54464;50.558;9.704;2023-07-20T03:49:49;5.60;;;4.30;;
27161;SDS011;54464;50.558;9.704;2023-07-20T03:52:31;5.07;;;4.57;;
27161;SDS011;54464;50.558;9.704;2023-07-20T03:55:06;7.23;;;4.10;;
27161;SDS011;54464;50.558;9.704;2023-07-20T03:57:43;5.73;;;4.53;;
27161;SDS011;54464;50.558;9.704;2023-07-20T04:00:14;7.63;;;5.30;;
27161;SDS011;54464;50.558;9.704;2023-07-20T04:02:44;6.20;;;5.60;;
27161;SDS011;54464;50.558;9.704;2023-07-20T04:05:15;7.87;;;5.13;;
27161;SDS011;54464;50.558;9.704;2023-07-20T04:07:43;5.87;;;4.60;;
27161;SDS011;54464;50.558;9.704;2023-07-20T04:10:20;5.13;;;4.63;;
27161;SDS011;54464;50.558;9.704;2023-07-20T04:13:21;6.40;;;4.80;;
27161;SDS011;54464;50.558;9.704;2023-07-20T04:15:47;5.20;;;4.20;;
27161;SDS011;54464;50.558;9.704;2023-07-20T04:18:27;6.07;;;4.77;;
27161;SDS011;54464;50.558;9.704;2023-07-20T04:20:58;5.83;;;4.90;;
27161;SDS011;54464;50.558;9.704;2023-07-20T04:23:29;6.20;;;5.10;;
27161;SDS011;54464;50.558;9.704;2023-07-20T04:26:08;6.20;;;5.13;;
27161;SDS011;54464;50.558;9.704;2023-07-20T04:28:53;5.93;;;4.77;;
27161;SDS011;54464;50.558;9.704;2023-07-20T04:31:26;5.50;;;5.00;;
27161;SDS011;54464;50.558;9.704;2023-07-20T04:34:04;8.30;;;4.80;;
27161;SDS011;54464;50.558;9.704;2023-07-20T04:39:41;6.17;;;4.17;;
27161;SDS011;54464;50.558;9.704;2023-07-20T04:42:06;5.80;;;4.57;;
27161;SDS011;54464;50.558;9.704;2023-07-20T04:48:17;5.13;;;4.63;;
27161;SDS011;54464;50.558;9.704;2023-07-20T04:50:55;5.37;;;4.87;;
27161;SDS011;54464;50.558;9.704;2023-07-20T04:53:29;7.13;;;4.93;;
27161;SDS011;54464;50.558;9.704;2023-07-20T04:55:58;6.17;;;4.70;;
27161;SDS011;54464;50.558;9.704;2023-07-20T04:58:32;7.17;;;4.60;;
27161;SDS011;54464;50.558;9.704;2023-07-20T05:01:04;6.70;;;4.70;;
27161;SDS011;54464;50.558;9.704;2023-07-20T05:03:44;5.10;;;4.47;;
27161;SDS011;54464;50.558;9.704;2023-07-20T05:06:18;6.63;;;4.57;;
27161;SDS011;54464;50.558;9.704;2023-07-20T05:08:53;6.70;;;5.20;;
27161;SDS011;54464;50.558;9.704;2023-07-20T05:11:25;4.63;;;4.23;;
27161;SDS011;54464;50.558;9.704;2023-07-20T05:13:56;6.10;;;5.20;;
27161;SDS011;54464;50.558;9.704;2023-07-20T05:16:28;8.97;;;4.90;;
27161;SDS011;54464;50.558;9.704;2023-07-20T05:18:59;6.17;;;4.80;;
27161;SDS011;54464;50.558;9.704;2023-07-20T05:21:42;5.27;;;4.77;;
27161;SDS011;54464;50.558;9.704;2023-07-20T05:24:37;6.60;;;4.73;;
27161;SDS011;54464;50.558;9.704;2023-07-20T05:27:10;5.93;;;4.50;;
27161;SDS011;54464;50.558;9.704;2023-07-20T05:29:47;5.67;;;4.90;;
27161;SDS011;54464;50.558;9.704;2023-07-20T05:32:13;5.47;;;4.60;;
27161;SDS011;54464;50.558;9.704;2023-07-20T05:34:42;5.23;;;4.73;;
27161;SDS011;54464;50.558;9.704;2023-07-20T05:37:16;6.03;;;4.90;;
27161;SDS011;54464;50.558;9.704;2023-07-20T05:40:13;6.33;;;4.40;;
27161;SDS011;54464;50.558;9.704;2023-07-20T05:42:42;5.47;;;4.77;;
27161;SDS011;54464;50.558;9.704;2023-07-20T05:45:12;5.50;;;4.43;;
27161;SDS011;54464;50.558;9.704;2023-07-20T05:50:45;7.07;;;4.63;;
27161;SDS011;54464;50.558;9.704;2023-07-20T05:53:35;6.50;;;5.10;;
27161;SDS011;54464;50.558;9.704;2023-07-20T05:56:10;7.50;;;5.17;;
27161;SDS011;54464;50.558;9.704;2023-07-20T05:58:48;6.73;;;5.00;;
27161;SDS011;54464;50.558;9.704;2023-07-20T06:01:16;7.97;;;4.67;;
27161;SDS011;54464;50.558;9.704;2023-07-20T06:03:46;5.37;;;4.60;;
27161;SDS011;54464;50.558;9.704;2023-07-20T06:06:17;6.97;;;5.13;;
27161;SDS011;54464;50.558;9.704;2023-07-20T06:08:42;7.00;;;4.60;;
27161;SDS011;54464;50.558;9.704;2023-07-20T06:11:11;5.97;;;4.40;;
27161;SDS011;54464;50.558;9.704;2023-07-20T06:13:39;5.13;;;4.53;;
27161;SDS011;54464;50.558;9.704;2023-07-20T06:16:08;7.30;;;4.00;;
27161;SDS011;54464;50.558;9.704;2023-07-20T06:18:34;4.73;;;4.13;;
27161;SDS011;54464;50.558;9.704;2023-07-20T06:21:05;5.90;;;4.77;;
27161;SDS011;54464;50.558;9.704;2023-07-20T06:23:33;7.47;;;4.63;;
27161;SDS011;54464;50.558;9.704;2023-07-20T06:26:06;8.43;;;5.47;;
27161;SDS011;54464;50.558;9.704;2023-07-20T06:28:43;4.93;;;4.30;;
27161;SDS011;54464;50.558;9.704;2023-07-20T06:34:00;4.53;;;3.90;;
27161;SDS011;54464;50.558;9.704;2023-07-20T06:36:40;5.00;;;3.87;;
27161;SDS011;54464;50.558;9.704;2023-07-20T06:42:14;4.63;;;3.83;;
27161;SDS011;54464;50.558;9.704;2023-07-20T06:44:46;5.47;;;3.63;;
27161;SDS011;54464;50.558;9.704;2023-07-20T06:47:14;4.27;;;3.57;;
27161;SDS011;54464;50.558;9.704;2023-07-20T06:49:47;3.70;;;3.40;;
27161;SDS011;54464;50.558;9.704;2023-07-20T06:52:18;4.87;;;3.37;;
27161;SDS011;54464;50.558;9.704;2023-07-20T06:54:46;6.43;;;3.70;;
27161;SDS011;54464;50.558;9.704;2023-07-20T06:57:23;5.00;;;3.50;;
27161;SDS011;54464;50.558;9.704;2023-07-20T06:59:58;5.10;;;3.40;;
27161;SDS011;54464;50.558;9.704;2023-07-20T07:02:32;4.43;;;3.10;;
27161;SDS011;54464;50.558;9.704;2023-07-20T07:05:05;4.87;;;3.07;;
27161;SDS011;54464;50.558;9.704;2023-07-20T07:07:34;5.10;;;3.40;;
27161;SDS011;54464;50.558;9.704;2023-07-20T07:10:09;8.80;;;3.87;;
27161;SDS011;54464;50.558;9.704;2023-07-20T07:13:04;4.83;;;3.83;;
27161;SDS011;54464;50.558;9.704;2023-07-20T07:15:37;4.07;;;3.30;;
27161;SDS011;54464;50.558;9.704;2023-07-20T07:18:10;4.43;;;3.60;;
27161;SDS011;54464;50.558;9.704;2023-07-20T07:20:42;5.00;;;3.00;;
27161;SDS011;54464;50.558;9.704;2023-07-20T07:23:18;4.67;;;3.30;;
27161;SDS011;54464;50.558;9.704;2023-07-20T07:25:47;6.27;;;3.53;;
27161;SDS011;54464;50.558;9.704;2023-07-20T07:28:13;5.20;;;3.40;;
27161;SDS011;54464;50.558;9.704;2023-07-20T07:30:41;3.47;;;3.10;;
27161;SDS011;54464;50.558;9.704;2023-07-20T07:33:13;5.37;;;3.53;;
27161;SDS011;54464;50.558;9.704;2023-07-20T07:35:48;6.03;;;3.93;;
27161;SDS011;54464;50.558;9.704;2023-07-20T07:38:29;7.20;;;4.10;;
27161;SDS011;54464;50.558;9.704;2023-07-20T07:41:11;4.80;;;4.40;;
27161;SDS011;54464;50.558;9.704;2023-07-20T07:44:03;5.50;;;5.00;;
27161;SDS011;54464;50.558;9.704;2023-07-20T07:46:29;5.70;;;4.93;;
27161;SDS011;54464;50.558;9.704;2023-07-20T07:49:03;5.30;;;4.80;;
27161;SDS011;54464;50.558;9.704;2023-07-20T07:51:40;7.60;;;4.83;;
27161;SDS011;54464;50.558;9.704;2023-07-20T07:54:08;6.67;;;5.60;;
27161;SDS011;54464;50.558;9.704;2023-07-20T07:56:34;6.50;;;5.70;;
27161;SDS011;54464;50.558;9.704;2023-07-20T07:59:21;5.70;;;5.20;;
27161;SDS011;54464;50.558;9.704;2023-07-20T08:02:08;5.97;;;5.43;;
27161;SDS011;54464;50.558;9.704;2023-07-20T08:04:36;6.97;;;6.03;;
27161;SDS011;54464;50.558;9.704;2023-07-20T08:07:03;6.53;;;5.70;;
27161;SDS011;54464;50.558;9.704;2023-07-20T08:09:40;8.27;;;5.43;;
27161;SDS011;54464;50.558;9.704;2023-07-20T08:12:14;5.10;;;4.50;;
27161;SDS011;54464;50.558;9.704;2023-07-20T08:14:44;5.00;;;4.50;;
27161;SDS011;54464;50.558;9.704;2023-07-20T08:17:09;7.07;;;5.60;;
27161;SDS011;54464;50.558;9.704;2023-07-20T08:19:38;5.67;;;5.07;;
27161;SDS011;54464;50.558;9.704;2023-07-20T08:22:12;6.03;;;5.40;;
27161;SDS011;54464;50.558;9.704;2023-07-20T08:24:42;6.93;;;5.80;;
27161;SDS011;54464;50.558;9.704;2023-07-20T08:27:22;7.00;;;5.80;;
27161;SDS011;54464;50.558;9.704;2023-07-20T08:30:15;5.87;;;5.20;;
27161;SDS011;54464;50.558;9.704;2023-07-20T08:32:48;5.20;;;4.70;;
27161;SDS011;54464;50.558;9.704;2023-07-20T08:35:37;5.50;;;4.93;;
27161;SDS011;54464;50.558;9.704;2023-07-20T08:38:08;5.50;;;5.00;;
27161;SDS011;54464;50.558;9.704;2023-07-20T08:40:54;5.70;;;5.10;;
27161;SDS011;54464;50.558;9.704;2023-07-20T08:43:28;5.80;;;5.30;;
27161;SDS011;54464;50.558;9.704;2023-07-20T08:46:05;6.30;;;5.13;;
27161;SDS011;54464;50.558;9.704;2023-07-20T08:48:40;5.53;;;4.97;;
27161;SDS011;54464;50.558;9.704;2023-07-20T08:51:10;6.47;;;5.10;;
27161;SDS011;54464;50.558;9.704;2023-07-20T08:53:37;6.87;;;4.93;;
27161;SDS011;54464;50.558;9.704;2023-07-20T08:56:13;5.87;;;4.93;;
27161;SDS011;54464;50.558;9.704;2023-07-20T08:58:46;5.57;;;4.53;;
27161;SDS011;54464;50.558;9.704;2023-07-20T09:01:19;6.63;;;4.60;;
27161;SDS011;54464;50.558;9.704;2023-07-20T09:03:45;7.43;;;5.10;;
27161;SDS011;54464;50.558;9.704;2023-07-20T09:06:14;5.23;;;4.57;;
27161;SDS011;54464;50.558;9.704;2023-07-20T09:08:50;5.33;;;4.50;;
27161;SDS011;54464;50.558;9.704;2023-07-20T09:11:15;5.13;;;4.27;;
27161;SDS011;54464;50.558;9.704;2023-07-20T09:14:09;4.27;;;3.87;;
27161;SDS011;54464;50.558;9.704;2023-07-20T09:19:19;4.27;;;3.87;;
27161;SDS011;54464;50.558;9.704;2023-07-20T09:22:03;4.50;;;4.10;;
27161;SDS011;54464;50.558;9.704;2023-07-20T09:24:42;5.03;;;4.07;;
27161;SDS011;54464;50.558;9.704;2023-07-20T09:27:14;3.90;;;3.50;;
27161;SDS011;54464;50.558;9.704;2023-07-20T09:29:50;3.97;;;3.17;;
27161;SDS011;54464;50.558;9.704;2023-07-20T09:32:34;3.67;;;3.37;;
27161;SDS011;54464;50.558;9.704;2023-07-20T09:35:13;3.57;;;3.27;;
27161;SDS011;54464;50.558;9.704;2023-07-20T09:38:04;3.40;;;3.10;;
27161;SDS011;54464;50.558;9.704;2023-07-20T09:40:40;3.63;;;3.33;;
27161;SDS011;54464;50.558;9.704;2023-07-20T09:43:15;4.40;;;3.67;;
27161;SDS011;54464;50.558;9.704;2023-07-20T09:45:53;5.33;;;4.00;;
27161;SDS011;54464;50.558;9.704;2023-07-20T09:48:24;4.07;;;3.67;;
27161;SDS011;54464;50.558;9.704;2023-07-20T09:50:51;4.87;;;3.93;;
27161;SDS011;54464;50.558;9.704;2023-07-20T09:53:48;4.40;;;3.90;;
27161;SDS011;54464;50.558;9.704;2023-07-20T09:56:26;4.73;;;4.27;;
27161;SDS011;54464;50.558;9.704;2023-07-20T09:58:59;4.17;;;3.77;;
27161;SDS011;54464;50.558;9.704;2023-07-20T10:01:25;6.03;;;4.37;;
27161;SDS011;54464;50.558;9.704;2023-07-20T10:03:55;6.37;;;5.03;;
27161;SDS011;54464;50.558;9.704;2023-07-20T10:06:44;5.00;;;4.53;;
27161;SDS011;54464;50.558;9.704;2023-07-20T10:09:23;6.10;;;5.17;;
27161;SDS011;54464;50.558;9.704;2023-07-20T10:11:54;6.17;;;5.37;;
27161;SDS011;54464;50.558;9.704;2023-07-20T10:14:25;6.40;;;5.33;;
27161;SDS011;54464;50.558;9.704;2023-07-20T10:17:15;8.27;;;5.77;;
27161;SDS011;54464;50.558;9.704;2023-07-20T10:19:52;7.27;;;5.70;;
27161;SDS011;54464;50.558;9.704;2023-07-20T10:22:27;6.10;;;5.00;;
27161;SDS011;54464;50.558;9.704;2023-07-20T10:24:55;5.57;;;4.97;;
27161;SDS011;54464;50.558;9.704;2023-07-20T10:27:26;5.43;;;4.93;;
27161;SDS011;54464;50.558;9.704;2023-07-20T10:30:03;8.73;;;5.63;;
27161;SDS011;54464;50.558;9.704;2023-07-20T10:32:30;6.43;;;4.93;;
27161;SDS011;54464;50.558;9.704;2023-07-20T10:35:01;6.53;;;5.13;;
27161;SDS011;54464;50.558;9.704;2023-07-20T10:38:02;7.57;;;5.00;;
27161;SDS011;54464;50.558;9.704;2023-07-20T10:40:53;5.00;;;4.60;;
27161;SDS011;54464;50.558;9.704;2023-07-20T10:43:22;5.77;;;5.10;;
27161;SDS011;54464;50.558;9.704;2023-07-20T10:45:53;3.67;;;3.00;;
27161;SDS011;54464;50.558;9.704;2023-07-20T10:48:20;4.43;;;3.33;;
27161;SDS011;54464;50.558;9.704;2023-07-20T10:53:56;3.30;;;3.00;;
27161;SDS011;54464;50.558;9.704;2023-07-20T10:56:26;3.40;;;3.10;;
27161;SDS011;54464;50.558;9.704;2023-07-20T10:58:57;4.17;;;3.20;;
27161;SDS011;54464;50.558;9.704;2023-07-20T11:01:35;3.13;;;2.83;;
27161;SDS011;54464;50.558;9.704;2023-07-20T11:04:10;3.27;;;2.93;;
27161;SDS011;54464;50.558;9.704;2023-07-20T11:06:44;3.60;;;2.50;;
27161;SDS011;54464;50.558;9.704;2023-07-20T11:09:41;3.07;;;2.43;;
27161;SDS011;54464;50.558;9.704;2023-07-20T11:12:16;2.60;;;2.40;;
27161;SDS011;54464;50.558;9.704;2023-07-20T11:17:33;3.80;;;2.10;;
27161;SDS011;54464;50.558;9.704;2023-07-20T11:20:00;4.20;;;2.10;;
27161;SDS011;54464;50.558;9.704;2023-07-20T11:22:33;5.13;;;2.40;;
27161;SDS011;54464;50.558;9.704;2023-07-20T11:25:02;2.50;;;2.23;;
27161;SDS011;54464;50.558;9.704;2023-07-20T11:27:30;2.80;;;2.40;;
27161;SDS011;54464;50.558;9.704;2023-07-20T11:29:56;5.37;;;3.33;;
27161;SDS011;54464;50.558;9.704;2023-07-20T11:32:24;2.63;;;2.23;;
27161;SDS011;54464;50.558;9.704;2023-07-20T11:34:50;3.20;;;2.60;;
27161;SDS011;54464;50.558;9.704;2023-07-20T11:37:18;3.37;;;2.27;;
27161;SDS011;54464;50.558;9.704;2023-07-20T11:39:44;2.60;;;2.40;;
27161;SDS011;54464;50.558;9.704;2023-07-20T11:42:09;3.83;;;2.63;;
27161;SDS011;54464;50.558;9.704;2023-07-20T11:44:36;2.50;;;2.30;;
27161;SDS011;54464;50.558;9.704;2023-07-20T11:49:29;3.53;;;2.47;;
27161;SDS011;54464;50.558;9.704;2023-07-20T11:51:55;2.47;;;2.27;;
27161;SDS011;54464;50.558;9.704;2023-07-20T11:54:28;2.07;;;1.97;;
27161;SDS011;54464;50.558;9.704;2023-07-20T11:56:54;2.00;;;1.90;;
27161;SDS011;54464;50.558;9.704;2023-07-20T11:59:23;2.13;;;2.00;;
27161;SDS011;54464;50.558;9.704;2023-07-20T12:01:49;2.10;;;1.90;;
27161;SDS011;54464;50.558;9.704;2023-07-20T12:04:14;2.53;;;2.00;;
27161;SDS011;54464;50.558;9.704;2023-07-20T12:06:40;2.30;;;2.10;;
27161;SDS011;54464;50.558;9.704;2023-07-20T12:09:06;2.20;;;2.00;;
27161;SDS011;54464;50.558;9.704;2023-07-20T12:11:42;2.10;;;1.80;;
27161;SDS011;54464;50.558;9.704;2023-07-20T12:14:09;1.83;;;1.70;;
27161;SDS011;54464;50.558;9.704;2023-07-20T12:16:38;3.33;;;2.10;;
27161;SDS011;54464;50.558;9.704;2023-07-20T12:19:08;3.03;;;2.23;;
27161;SDS011;54464;50.558;9.704;2023-07-20T12:21:35;1.80;;;1.70;;
27161;SDS011;54464;50.558;9.704;2023-07-20T12:24:02;1.90;;;1.80;;
27161;SDS011;54464;50.558;9.704;2023-07-20T12:26:32;2.43;;;2.13;;
27161;SDS011;54464;50.558;9.704;2023-07-20T12:28:59;2.13;;;1.93;;
27161;SDS011;54464;50.558;9.704;2023-07-20T12:31:25;2.37;;;2.17;;
27161;SDS011;54464;50.558;9.704;2023-07-20T12:33:52;3.57;;;2.50;;
27161;SDS011;54464;50.558;9.704;2023-07-20T12:36:20;2.37;;;2.17;;
27161;SDS011;54464;50.558;9.704;2023-07-20T12:38:49;2.50;;;2.30;;
27161;SDS011;54464;50.558;9.704;2023-07-20T12:41:15;2.60;;;2.40;;
27161;SDS011;54464;50.558;9.704;2023-07-20T12:43:42;5.77;;;2.63;;
27161;SDS011;54464;50.558;9.704;2023-07-20T12:46:09;3.27;;;2.57;;
27161;SDS011;54464;50.558;9.704;2023-07-20T12:48:37;3.85;;;2.80;;
27161;SDS011;54464;50.558;9.704;2023-07-20T12:51:03;2.80;;;2.50;;
27161;SDS011;54464;50.558;9.704;2023-07-20T12:53:32;3.15;;;2.70;;
27161;SDS011;54464;50.558;9.704;2023-07-20T12:56:01;2.80;;;2.35;;
27161;SDS011;54464;50.558;9.704;2023-07-20T12:58:29;3.30;;;2.40;;
27161;SDS011;54464;50.558;9.704;2023-07-20T13:00:55;2.55;;;2.30;;
27161;SDS011;54464;50.558;9.704;2023-07-20T13:03:23;2.70;;;2.50;;
27161;SDS011;54464;50.558;9.704;2023-07-20T13:05:49;3.95;;;2.28;;
27161;SDS011;54464;50.558;9.704;2023-07-20T13:08:15;2.65;;;2.17;;
27161;SDS011;54464;50.558;9.704;2023-07-20T13:10:41;2.45;;;2.25;;
27161;SDS011;54464;50.558;9.704;2023-07-20T13:13:08;2.53;;;2.28;;
27161;SDS011;54464;50.558;9.704;2023-07-20T13:15:40;2.60;;;2.40;;
27161;SDS011;54464;50.558;9.704;2023-07-20T13:18:12;3.03;;;2.05;;
27161;SDS011;54464;50.558;9.704;2023-07-20T13:20:37;2.90;;;2.60;;
27161;SDS011;54464;50.558;9.704;2023-07-20T13:23:12;2.42;;;2.22;;
27161;SDS011;54464;50.558;9.704;2023-07-20T13:25:40;2.67;;;2.20;;
27161;SDS011;54464;50.558;9.704;2023-07-20T13:28:07;3.70;;;2.40;;
27161;SDS011;54464;50.558;9.704;2023-07-20T13:30:38;2.67;;;2.40;;
27161;SDS011;54464;50.558;9.704;2023-07-20T13:33:04;2.83;;;2.50;;
27161;SDS011;54464;50.558;9.704;2023-07-20T13:35:32;2.20;;;2.00;;
27161;SDS011;54464;50.558;9.704;2023-07-20T13:37:58;2.50;;;2.30;;
27161;SDS011;54464;50.558;9.704;2023-07-20T13:40:23;2.50;;;2.30;;
27161;SDS011;54464;50.558;9.704;2023-07-20T13:42:49;3.93;;;2.30;;
27161;SDS011;54464;50.558;9.704;2023-07-20T13:45:40;2.80;;;2.20;;
27161;SDS011;54464;50.558;9.704;2023-07-20T13:48:06;2.77;;;2.10;;
27161;SDS011;54464;50.558;9.704;2023-07-20T13:50:52;2.10;;;2.00;;
27161;SDS011;54464;50.558;9.704;2023-07-20T13:53:18;2.25;;;2.05;;
27161;SDS011;54464;50.558;9.704;2023-07-20T13:55:43;2.60;;;1.95;;
27161;SDS011;54464;50.558;9.704;2023-07-20T13:58:12;2.05;;;1.90;;
27161;SDS011;54464;50.558;9.704;2023-07-20T14:00:37;1.77;;;1.67;;
27161;SDS011;54464;50.558;9.704;2023-07-20T14:03:23;2.25;;;2.05;;
27161;SDS011;54464;50.558;9.704;2023-07-20T14:05:58;2.75;;;2.33;;
27161;SDS011;54464;50.558;9.704;2023-07-20T14:08:23;2.38;;;2.00;;
27161;SDS011;54464;50.558;9.704;2023-07-20T14:10:49;1.92;;;1.83;;
27161;SDS011;54464;50.558;9.704;2023-07-20T14:13:14;2.05;;;1.80;;
27161;SDS011;54464;50.558;9.704;2023-07-20T14:15:43;2.22;;;2.03;;
27161;SDS011;54464;50.558;9.704;2023-07-20T14:18:21;2.53;;;2.10;;
27161;SDS011;54464;50.558;9.704;2023-07-20T14:20:57;2.78;;;2.30;;
27161;SDS011;54464;50.558;9.704;2023-07-20T14:23:23;2.70;;;2.10;;
27161;SDS011;54464;50.558;9.704;2023-07-20T14:25:48;2.40;;;2.20;;
27161;SDS011;54464;50.558;9.704;2023-07-20T14:28:16;2.20;;;2.00;;
27161;SDS011;54464;50.558;9.704;2023-07-20T14:30:42;2.65;;;2.13;;
27161;SDS011;54464;50.558;9.704;2023-07-20T14:33:13;2.40;;;2.17;;
27161;SDS011;54464;50.558;9.704;2023-07-20T14:36:11;2.70;;;2.50;;
27161;SDS011;54464;50.558;9.704;2023-07-20T14:38:43;4.18;;;2.35;;
27161;SDS011;54464;50.558;9.704;2023-07-20T14:41:11;2.77;;;2.37;;
27161;SDS011;54464;50.558;9.704;2023-07-20T14:43:37;2.80;;;2.50;;
27161;SDS011;54464;50.558;9.704;2023-07-20T14:46:03;3.37;;;2.60;;
27161;SDS011;54464;50.558;9.704;2023-07-20T14:48:29;2.50;;;2.30;;
27161;SDS011;54464;50.558;9.704;2023-07-20T14:51:03;3.33;;;2.57;;
27161;SDS011;54464;50.558;9.704;2023-07-20T14:53:35;3.00;;;2.70;;
27161;SDS011;54464;50.558;9.704;2023-07-20T14:56:01;2.80;;;2.60;;
27161;SDS011;54464;50.558;9.704;2023-07-20T14:58:26;2.90;;;2.60;;
27161;SDS011;54464;50.558;9.704;2023-07-20T15:01:00;3.27;;;2.57;;
27161;SDS011;54464;50.558;9.704;2023-07-20T15:03:28;3.03;;;2.67;;
27161;SDS011;54464;50.558;9.704;2023-07-20T15:05:55;2.87;;;2.67;;
27161;SDS011;54464;50.558;9.704;2023-07-20T15:08:21;3.00;;;2.67;;
27161;SDS011;54464;50.558;9.704;2023-07-20T15:10:48;3.10;;;2.40;;
27161;SDS011;54464;50.558;9.704;2023-07-20T15:13:13;2.70;;;2.50;;
27161;SDS011;54464;50.558;9.704;2023-07-20T15:15:39;2.50;;;2.30;;
27161;SDS011;54464;50.558;9.704;2023-07-20T15:18:05;2.20;;;2.00;;
27161;SDS011;54464;50.558;9.704;2023-07-20T15:20:31;4.20;;;2.45;;
27161;SDS011;54464;50.558;9.704;2023-07-20T15:22:57;3.42;;;2.33;;
27161;SDS011;54464;50.558;9.704;2023-07-20T15:25:22;3.00;;;2.10;;
27161;SDS011;54464;50.558;9.704;2023-07-20T15:28:01;2.70;;;2.22;;
27161;SDS011;54464;50.558;9.704;2023-07-20T15:30:27;2.43;;;2.23;;
27161;SDS011;54464;50.558;9.704;2023-07-20T15:32:54;2.57;;;2.27;;
27161;SDS011;54464;50.558;9.704;2023-07-20T15:35:21;2.42;;;2.20;;
27161;SDS011;54464;50.558;9.704;2023-07-20T15:38:07;2.73;;;2.53;;
27161;SDS011;54464;50.558;9.704;2023-07-20T15:40:33;3.42;;;2.50;;
27161;SDS011;54464;50.558;9.704;2023-07-20T15:42:58;3.88;;;2.30;;
27161;SDS011;54464;50.558;9.704;2023-07-20T15:45:24;2.55;;;2.35;;
27161;SDS011;54464;50.558;9.704;2023-07-20T15:47:52;2.58;;;2.10;;
27161;SDS011;54464;50.558;9.704;2023-07-20T15:50:18;2.58;;;1.90;;
27161;SDS011;54464;50.558;9.704;2023-07-20T15:52:49;1.80;;;1.70;;
27161;SDS011;54464;50.558;9.704;2023-07-20T15:55:15;1.83;;;1.73;;
27161;SDS011;54464;50.558;9.704;2023-07-20T15:57:40;2.10;;;1.88;;
27161;SDS011;54464;50.558;9.704;2023-07-20T16:00:06;2.10;;;1.90;;
27161;SDS011;54464;50.558;9.704;2023-07-20T16:02:34;2.20;;;2.00;;
27161;SDS011;54464;50.558;9.704;2023-07-20T16:05:00;1.90;;;1.80;;
27161;SDS011;54464;50.558;9.704;2023-07-20T16:07:31;2.40;;;2.05;;
27161;SDS011;54464;50.558;9.704;2023-07-20T16:09:57;2.15;;;1.95;;
27161;SDS011;54464;50.558;9.704;2023-07-20T16:12:28;2.00;;;1.90;;
27161;SDS011;54464;50.558;9.704;2023-07-20T16:14:57;2.65;;;2.03;;
27161;SDS011;54464;50.558;9.704;2023-07-20T16:17:22;2.30;;;2.10;;
27161;SDS011;54464;50.558;9.704;2023-07-20T16:19:48;2.22;;;2.08;;
27161;SDS011;54464;50.558;9.704;2023-07-20T16:22:14;2.90;;;1.95;;